sensor_id;sensor_type;location;lat;lon;timestamp;temperature;humidity
5743;DHT22;2896;53.500;10.020;2024-02-21T00:02:19;9.20;99.90
5743;DHT22;2896;53.500;10.020;2024-02-21T00:09:41;9.20;99.90
5743;DHT22;2896;53.500;10.020;2024-02-21T00:12:08;9.10;99.90
5743;DHT22;2896;53.500;10.020;2024-02-21T00:14:35;9.10;99.90
5743;DHT22;2896;53.500;10.020;2024-02-21T00:17:02;9.10;99.90
5743;DHT22;2896;53.500;10.020;2024-02-21T00:19:28;9.10;99.90
5743;DHT22;2896;53.500;10.020;2024-02-21T00:21:55;9.10;99.90
5743;DHT22;2896;53.500;10.020;2024-02-21T00:24:22;9.10;99.90
5743;DHT22;2896;53.500;10.020;2024-02-21T00:26:50;9.10;99.90
5743;DHT22;2896;53.500;10.020;2024-02-21T00:29:16;9.10;99.90
5743;DHT22;2896;53.500;10.020;2024-02-21T00:34:10;9.00;99.90
5743;DHT22;2896;53.500;10.020;2024-02-21T00:36:38;9.00;99.90
5743;DHT22;2896;53.500;10.020;2024-02-21T00:39:04;9.10;99.90
5743;DHT22;2896;53.500;10.020;2024-02-21T00:44:00;9.10;99.90
5743;DHT22;2896;53.500;10.020;2024-02-21T00:51:20;9.00;99.90
5743;DHT22;2896;53.500;10.020;2024-02-21T00:53:47;9.10;99.90
5743;DHT22;2896;53.500;10.020;2024-02-21T00:56:13;9.10;99.90
5743;DHT22;2896;53.500;10.020;2024-02-21T01:01:08;9.10;99.90
5743;DHT22;2896;53.500;10.020;2024-02-21T01:06:02;9.00;99.90
5743;DHT22;2896;53.500;10.020;2024-02-21T01:08:29;9.10;99.90
5743;DHT22;2896;53.500;10.020;2024-02-21T01:10:55;9.10;99.90
5743;DHT22;2896;53.500;10.020;2024-02-21T01:13:22;9.10;99.90
5743;DHT22;2896;53.500;10.020;2024-02-21T01:15:48;9.10;99.90
5743;DHT22;2896;53.500;10.020;2024-02-21T01:18:16;9.10;99.90
5743;DHT22;2896;53.500;10.020;2024-02-21T01:20:43;9.10;99.90
5743;DHT22;2896;53.500;10.020;2024-02-21T01:25:36;9.10;99.90
5743;DHT22;2896;53.500;10.020;2024-02-21T01:28:03;9.10;99.90
5743;DHT22;2896;53.500;10.020;2024-02-21T01:30:30;9.10;99.90
5743;DHT22;2896;53.500;10.020;2024-02-21T01:32:57;9.10;99.90
5743;DHT22;2896;53.500;10.020;2024-02-21T01:35:25;9.10;99.90
5743;DHT22;2896;53.500;10.020;2024-02-21T01:37:51;9.00;99.90
5743;DHT22;2896;53.500;10.020;2024-02-21T01:40:18;9.20;99.90
5743;DHT22;2896;53.500;10.020;2024-02-21T01:42:44;9.10;99.90
5743;DHT22;2896;53.500;10.020;2024-02-21T01:50:08;9.10;99.90
5743;DHT22;2896;53.500;10.020;2024-02-21T01:52:36;9.10;99.90
5743;DHT22;2896;53.500;10.020;2024-02-21T01:55:04;9.10;99.90
5743;DHT22;2896;53.500;10.020;2024-02-21T01:57:32;9.00;99.90
5743;DHT22;2896;53.500;10.020;2024-02-21T02:02:26;9.00;99.90
5743;DHT22;2896;53.500;10.020;2024-02-21T02:04:53;8.90;99.90
5743;DHT22;2896;53.500;10.020;2024-02-21T02:07:20;8.90;99.90
5743;DHT22;2896;53.500;10.020;2024-02-21T02:09:48;9.00;99.90
5743;DHT22;2896;53.500;10.020;2024-02-21T02:17:09;8.90;99.90
5743;DHT22;2896;53.500;10.020;2024-02-21T02:19:35;8.90;99.90
5743;DHT22;2896;53.500;10.020;2024-02-21T02:22:08;8.90;99.90
5743;DHT22;2896;53.500;10.020;2024-02-21T02:24:37;8.90;99.90
5743;DHT22;2896;53.500;10.020;2024-02-21T02:29:32;8.90;99.90
5743;DHT22;2896;53.500;10.020;2024-02-21T02:34:25;8.90;99.90
5743;DHT22;2896;53.500;10.020;2024-02-21T02:36:52;8.90;99.90
5743;DHT22;2896;53.500;10.020;2024-02-21T02:41:48;8.90;99.90
5743;DHT22;2896;53.500;10.020;2024-02-21T02:49:09;8.90;99.90
5743;DHT22;2896;53.500;10.020;2024-02-21T02:54:03;8.90;99.90
5743;DHT22;2896;53.500;10.020;2024-02-21T02:58:58;9.00;99.90
5743;DHT22;2896;53.500;10.020;2024-02-21T03:11:14;8.90;99.90
5743;DHT22;2896;53.500;10.020;2024-02-21T03:13:40;9.00;99.90
5743;DHT22;2896;53.500;10.020;2024-02-21T03:16:08;9.00;99.90
5743;DHT22;2896;53.500;10.020;2024-02-21T03:18:35;9.00;99.90
5743;DHT22;2896;53.500;10.020;2024-02-21T03:21:01;9.10;99.90
5743;DHT22;2896;53.500;10.020;2024-02-21T03:23:28;9.10;99.90
5743;DHT22;2896;53.500;10.020;2024-02-21T03:28:22;9.20;99.90
5743;DHT22;2896;53.500;10.020;2024-02-21T03:30:48;9.20;99.90
5743;DHT22;2896;53.500;10.020;2024-02-21T03:33:16;9.10;99.90
5743;DHT22;2896;53.500;10.020;2024-02-21T03:35:43;9.10;99.90
5743;DHT22;2896;53.500;10.020;2024-02-21T03:38:09;9.20;99.90
5743;DHT22;2896;53.500;10.020;2024-02-21T03:40:36;9.10;99.90
5743;DHT22;2896;53.500;10.020;2024-02-21T03:43:03;9.20;99.90
5743;DHT22;2896;53.500;10.020;2024-02-21T03:45:29;9.10;99.90
5743;DHT22;2896;53.500;10.020;2024-02-21T03:47:56;9.20;99.90
5743;DHT22;2896;53.500;10.020;2024-02-21T03:50:24;9.20;99.90
5743;DHT22;2896;53.500;10.020;2024-02-21T03:52:53;9.20;99.90
5743;DHT22;2896;53.500;10.020;2024-02-21T03:55:19;9.30;99.90
5743;DHT22;2896;53.500;10.020;2024-02-21T03:57:46;9.30;99.90
5743;DHT22;2896;53.500;10.020;2024-02-21T04:00:13;9.30;99.90
5743;DHT22;2896;53.500;10.020;2024-02-21T04:02:40;9.30;99.90
5743;DHT22;2896;53.500;10.020;2024-02-21T04:05:07;9.30;99.90
5743;DHT22;2896;53.500;10.020;2024-02-21T04:07:37;9.30;99.90
5743;DHT22;2896;53.500;10.020;2024-02-21T04:10:04;9.20;99.90
5743;DHT22;2896;53.500;10.020;2024-02-21T04:12:31;9.10;99.90
5743;DHT22;2896;53.500;10.020;2024-02-21T04:14:58;9.10;99.90
5743;DHT22;2896;53.500;10.020;2024-02-21T04:17:24;9.10;99.90
5743;DHT22;2896;53.500;10.020;2024-02-21T04:20:02;9.10;99.90
5743;DHT22;2896;53.500;10.020;2024-02-21T04:22:30;9.00;99.90
5743;DHT22;2896;53.500;10.020;2024-02-21T04:24:59;9.00;99.90
5743;DHT22;2896;53.500;10.020;2024-02-21T04:27:26;9.10;99.90
5743;DHT22;2896;53.500;10.020;2024-02-21T04:29:53;9.00;99.90
5743;DHT22;2896;53.500;10.020;2024-02-21T04:32:19;9.00;99.90
5743;DHT22;2896;53.500;10.020;2024-02-21T04:34:46;9.00;99.90
5743;DHT22;2896;53.500;10.020;2024-02-21T04:37:13;9.00;99.90
5743;DHT22;2896;53.500;10.020;2024-02-21T04:39:40;8.90;99.90
5743;DHT22;2896;53.500;10.020;2024-02-21T04:42:08;8.90;99.90
5743;DHT22;2896;53.500;10.020;2024-02-21T04:44:34;8.90;99.90
5743;DHT22;2896;53.500;10.020;2024-02-21T04:47:01;8.90;99.90
5743;DHT22;2896;53.500;10.020;2024-02-21T04:49:29;8.90;99.90
5743;DHT22;2896;53.500;10.020;2024-02-21T04:51:55;9.00;99.90
5743;DHT22;2896;53.500;10.020;2024-02-21T04:54:22;8.90;99.90
5743;DHT22;2896;53.500;10.020;2024-02-21T04:56:48;9.00;99.90
5743;DHT22;2896;53.500;10.020;2024-02-21T04:59:16;8.90;99.90
5743;DHT22;2896;53.500;10.020;2024-02-21T05:01:43;8.90;99.90
5743;DHT22;2896;53.500;10.020;2024-02-21T05:04:10;8.90;99.90
5743;DHT22;2896;53.500;10.020;2024-02-21T05:06:37;8.90;99.90
5743;DHT22;2896;53.500;10.020;2024-02-21T05:09:05;8.90;99.90
5743;DHT22;2896;53.500;10.020;2024-02-21T05:11:31;8.90;99.90
5743;DHT22;2896;53.500;10.020;2024-02-21T05:13:58;8.90;99.90
5743;DHT22;2896;53.500;10.020;2024-02-21T05:16:26;8.90;99.90
5743;DHT22;2896;53.500;10.020;2024-02-21T05:18:52;8.80;99.90
5743;DHT22;2896;53.500;10.020;2024-02-21T05:21:19;8.90;99.90
5743;DHT22;2896;53.500;10.020;2024-02-21T05:23:46;8.80;99.90
5743;DHT22;2896;53.500;10.020;2024-02-21T05:26:20;8.80;99.90
5743;DHT22;2896;53.500;10.020;2024-02-21T05:28:47;8.90;99.90
5743;DHT22;2896;53.500;10.020;2024-02-21T05:31:13;8.90;99.90
5743;DHT22;2896;53.500;10.020;2024-02-21T05:33:42;8.80;99.90
5743;DHT22;2896;53.500;10.020;2024-02-21T05:36:09;8.90;99.90
5743;DHT22;2896;53.500;10.020;2024-02-21T05:38:35;8.90;99.90
5743;DHT22;2896;53.500;10.020;2024-02-21T05:41:03;8.90;99.90
5743;DHT22;2896;53.500;10.020;2024-02-21T05:43:29;8.90;99.90
5743;DHT22;2896;53.500;10.020;2024-02-21T05:45:56;8.80;99.90
5743;DHT22;2896;53.500;10.020;2024-02-21T05:48:23;8.90;99.90
5743;DHT22;2896;53.500;10.020;2024-02-21T05:50:51;8.80;99.90
5743;DHT22;2896;53.500;10.020;2024-02-21T05:53:18;8.80;99.90
5743;DHT22;2896;53.500;10.020;2024-02-21T05:55:45;8.80;99.90
5743;DHT22;2896;53.500;10.020;2024-02-21T05:58:11;8.80;99.90
5743;DHT22;2896;53.500;10.020;2024-02-21T06:00:39;8.80;99.90
5743;DHT22;2896;53.500;10.020;2024-02-21T06:03:05;8.80;99.90
5743;DHT22;2896;53.500;10.020;2024-02-21T06:05:36;8.80;99.90
5743;DHT22;2896;53.500;10.020;2024-02-21T06:08:05;8.80;99.90
5743;DHT22;2896;53.500;10.020;2024-02-21T06:10:32;8.80;99.90
5743;DHT22;2896;53.500;10.020;2024-02-21T06:12:58;8.80;99.90
5743;DHT22;2896;53.500;10.020;2024-02-21T06:15:25;8.80;99.90
5743;DHT22;2896;53.500;10.020;2024-02-21T06:17:52;8.80;99.90
5743;DHT22;2896;53.500;10.020;2024-02-21T06:20:18;8.90;99.90
5743;DHT22;2896;53.500;10.020;2024-02-21T06:22:45;8.80;99.90
5743;DHT22;2896;53.500;10.020;2024-02-21T06:25:13;8.80;99.90
5743;DHT22;2896;53.500;10.020;2024-02-21T06:27:39;8.80;99.90
5743;DHT22;2896;53.500;10.020;2024-02-21T06:30:07;8.90;99.90
5743;DHT22;2896;53.500;10.020;2024-02-21T06:32:34;8.90;99.90
5743;DHT22;2896;53.500;10.020;2024-02-21T06:35:01;8.80;99.90
5743;DHT22;2896;53.500;10.020;2024-02-21T06:37:28;8.80;99.90
5743;DHT22;2896;53.500;10.020;2024-02-21T06:39:55;8.80;99.90
5743;DHT22;2896;53.500;10.020;2024-02-21T06:42:24;8.80;99.90
5743;DHT22;2896;53.500;10.020;2024-02-21T06:44:51;8.80;99.90
5743;DHT22;2896;53.500;10.020;2024-02-21T06:47:17;8.80;99.90
5743;DHT22;2896;53.500;10.020;2024-02-21T06:49:48;8.80;99.90
5743;DHT22;2896;53.500;10.020;2024-02-21T06:52:15;8.80;99.90
5743;DHT22;2896;53.500;10.020;2024-02-21T06:54:42;8.80;99.90
5743;DHT22;2896;53.500;10.020;2024-02-21T06:57:09;8.80;99.90
5743;DHT22;2896;53.500;10.020;2024-02-21T06:59:37;8.80;99.90
5743;DHT22;2896;53.500;10.020;2024-02-21T07:02:03;8.80;99.90
5743;DHT22;2896;53.500;10.020;2024-02-21T07:04:30;8.80;99.90
5743;DHT22;2896;53.500;10.020;2024-02-21T07:06:57;8.80;99.90
5743;DHT22;2896;53.500;10.020;2024-02-21T07:09:23;8.90;99.90
5743;DHT22;2896;53.500;10.020;2024-02-21T07:11:50;8.90;99.90
5743;DHT22;2896;53.500;10.020;2024-02-21T07:14:18;8.90;99.90
5743;DHT22;2896;53.500;10.020;2024-02-21T07:16:46;8.90;99.90
5743;DHT22;2896;53.500;10.020;2024-02-21T07:19:13;8.90;99.90
5743;DHT22;2896;53.500;10.020;2024-02-21T07:21:39;8.90;99.90
5743;DHT22;2896;53.500;10.020;2024-02-21T07:24:07;9.00;99.90
5743;DHT22;2896;53.500;10.020;2024-02-21T07:26:34;9.00;99.90
5743;DHT22;2896;53.500;10.020;2024-02-21T07:29:01;9.00;99.90
5743;DHT22;2896;53.500;10.020;2024-02-21T07:31:27;8.90;99.90
5743;DHT22;2896;53.500;10.020;2024-02-21T07:33:55;9.00;99.90
5743;DHT22;2896;53.500;10.020;2024-02-21T07:36:29;9.00;99.90
5743;DHT22;2896;53.500;10.020;2024-02-21T07:38:56;9.00;99.90
5743;DHT22;2896;53.500;10.020;2024-02-21T07:41:23;9.10;99.90
5743;DHT22;2896;53.500;10.020;2024-02-21T07:43:49;9.00;99.90
5743;DHT22;2896;53.500;10.020;2024-02-21T07:46:17;9.00;99.90
5743;DHT22;2896;53.500;10.020;2024-02-21T07:48:45;8.90;99.90
5743;DHT22;2896;53.500;10.020;2024-02-21T07:51:13;9.10;99.90
5743;DHT22;2896;53.500;10.020;2024-02-21T07:53:39;9.00;99.90
5743;DHT22;2896;53.500;10.020;2024-02-21T07:56:10;9.00;99.90
5743;DHT22;2896;53.500;10.020;2024-02-21T07:58:36;9.00;99.90
5743;DHT22;2896;53.500;10.020;2024-02-21T08:01:03;9.00;99.90
5743;DHT22;2896;53.500;10.020;2024-02-21T08:03:30;9.00;99.90
5743;DHT22;2896;53.500;10.020;2024-02-21T08:05:56;9.00;99.90
5743;DHT22;2896;53.500;10.020;2024-02-21T08:08:24;9.00;99.90
5743;DHT22;2896;53.500;10.020;2024-02-21T08:10:50;9.00;99.90
5743;DHT22;2896;53.500;10.020;2024-02-21T08:13:17;9.00;99.90
5743;DHT22;2896;53.500;10.020;2024-02-21T08:15:43;9.00;99.90
5743;DHT22;2896;53.500;10.020;2024-02-21T08:18:10;9.00;99.90
5743;DHT22;2896;53.500;10.020;2024-02-21T08:20:37;9.00;99.90
5743;DHT22;2896;53.500;10.020;2024-02-21T08:23:03;9.50;99.90
5743;DHT22;2896;53.500;10.020;2024-02-21T08:25:31;9.00;99.90
5743;DHT22;2896;53.500;10.020;2024-02-21T08:27:59;9.00;99.90
5743;DHT22;2896;53.500;10.020;2024-02-21T08:30:25;8.90;99.90
5743;DHT22;2896;53.500;10.020;2024-02-21T08:32:52;8.90;99.90
5743;DHT22;2896;53.500;10.020;2024-02-21T08:35:19;8.90;99.90
5743;DHT22;2896;53.500;10.020;2024-02-21T08:37:47;8.90;99.90
5743;DHT22;2896;53.500;10.020;2024-02-21T08:40:14;8.90;99.90
5743;DHT22;2896;53.500;10.020;2024-02-21T08:42:44;8.90;99.90
5743;DHT22;2896;53.500;10.020;2024-02-21T08:45:11;8.90;99.90
5743;DHT22;2896;53.500;10.020;2024-02-21T08:47:39;8.90;99.90
5743;DHT22;2896;53.500;10.020;2024-02-21T08:50:07;8.80;99.90
5743;DHT22;2896;53.500;10.020;2024-02-21T08:52:35;8.80;99.90
5743;DHT22;2896;53.500;10.020;2024-02-21T08:55:01;8.80;99.90
5743;DHT22;2896;53.500;10.020;2024-02-21T08:57:28;8.80;99.90
5743;DHT22;2896;53.500;10.020;2024-02-21T09:00:03;8.70;99.90
5743;DHT22;2896;53.500;10.020;2024-02-21T09:02:35;8.70;99.90
5743;DHT22;2896;53.500;10.020;2024-02-21T09:05:02;8.60;99.90
5743;DHT22;2896;53.500;10.020;2024-02-21T09:07:30;8.70;99.90
5743;DHT22;2896;53.500;10.020;2024-02-21T09:09:57;8.80;99.90
5743;DHT22;2896;53.500;10.020;2024-02-21T09:12:23;8.80;99.90
5743;DHT22;2896;53.500;10.020;2024-02-21T09:14:50;8.70;99.90
5743;DHT22;2896;53.500;10.020;2024-02-21T09:17:18;8.80;99.90
5743;DHT22;2896;53.500;10.020;2024-02-21T09:19:46;8.70;99.90
5743;DHT22;2896;53.500;10.020;2024-02-21T09:22:13;8.70;99.90
5743;DHT22;2896;53.500;10.020;2024-02-21T09:24:39;8.80;99.90
5743;DHT22;2896;53.500;10.020;2024-02-21T09:27:06;8.80;99.90
5743;DHT22;2896;53.500;10.020;2024-02-21T09:29:33;8.90;99.90
5743;DHT22;2896;53.500;10.020;2024-02-21T09:31:59;8.90;99.90
5743;DHT22;2896;53.500;10.020;2024-02-21T09:34:27;9.00;99.90
5743;DHT22;2896;53.500;10.020;2024-02-21T09:36:54;8.90;99.90
5743;DHT22;2896;53.500;10.020;2024-02-21T09:39:20;9.00;99.90
5743;DHT22;2896;53.500;10.020;2024-02-21T09:41:50;9.00;99.90
5743;DHT22;2896;53.500;10.020;2024-02-21T09:44:19;9.00;99.90
5743;DHT22;2896;53.500;10.020;2024-02-21T09:46:52;9.10;99.90
5743;DHT22;2896;53.500;10.020;2024-02-21T09:49:30;9.10;99.90
5743;DHT22;2896;53.500;10.020;2024-02-21T09:52:00;9.10;99.90
5743;DHT22;2896;53.500;10.020;2024-02-21T09:54:28;9.20;99.90
5743;DHT22;2896;53.500;10.020;2024-02-21T09:56:55;9.20;99.90
5743;DHT22;2896;53.500;10.020;2024-02-21T09:59:22;9.20;99.90
5743;DHT22;2896;53.500;10.020;2024-02-21T10:01:50;9.20;99.90
5743;DHT22;2896;53.500;10.020;2024-02-21T10:04:17;9.30;99.90
5743;DHT22;2896;53.500;10.020;2024-02-21T10:06:46;9.30;99.90
5743;DHT22;2896;53.500;10.020;2024-02-21T10:09:20;9.40;99.90
5743;DHT22;2896;53.500;10.020;2024-02-21T10:11:48;9.40;99.90
5743;DHT22;2896;53.500;10.020;2024-02-21T10:14:15;9.40;99.90
5743;DHT22;2896;53.500;10.020;2024-02-21T10:16:42;9.40;99.90
5743;DHT22;2896;53.500;10.020;2024-02-21T10:19:16;9.40;99.90
5743;DHT22;2896;53.500;10.020;2024-02-21T10:21:45;9.40;99.90
5743;DHT22;2896;53.500;10.020;2024-02-21T10:24:12;9.40;99.90
5743;DHT22;2896;53.500;10.020;2024-02-21T10:26:38;9.50;99.90
5743;DHT22;2896;53.500;10.020;2024-02-21T10:31:32;9.50;99.90
5743;DHT22;2896;53.500;10.020;2024-02-21T10:34:00;9.40;99.90
5743;DHT22;2896;53.500;10.020;2024-02-21T10:36:28;9.50;99.90
5743;DHT22;2896;53.500;10.020;2024-02-21T10:38:56;9.60;99.90
5743;DHT22;2896;53.500;10.020;2024-02-21T10:41:24;9.50;99.90
5743;DHT22;2896;53.500;10.020;2024-02-21T10:43:53;9.60;99.90
5743;DHT22;2896;53.500;10.020;2024-02-21T10:46:21;9.60;99.90
5743;DHT22;2896;53.500;10.020;2024-02-21T10:48:53;9.60;99.90
5743;DHT22;2896;53.500;10.020;2024-02-21T10:51:28;9.50;99.90
5743;DHT22;2896;53.500;10.020;2024-02-21T10:54:05;9.50;99.90
5743;DHT22;2896;53.500;10.020;2024-02-21T10:56:38;9.50;99.90
5743;DHT22;2896;53.500;10.020;2024-02-21T10:59:07;9.40;99.90
5743;DHT22;2896;53.500;10.020;2024-02-21T11:01:34;9.40;99.90
5743;DHT22;2896;53.500;10.020;2024-02-21T11:04:03;9.50;99.90
5743;DHT22;2896;53.500;10.020;2024-02-21T11:06:31;9.40;99.90
5743;DHT22;2896;53.500;10.020;2024-02-21T11:09:01;9.40;99.90
5743;DHT22;2896;53.500;10.020;2024-02-21T11:14:04;9.50;99.90
5743;DHT22;2896;53.500;10.020;2024-02-21T11:16:35;9.50;99.90
5743;DHT22;2896;53.500;10.020;2024-02-21T11:19:07;9.50;99.90
5743;DHT22;2896;53.500;10.020;2024-02-21T11:21:34;9.40;99.90
5743;DHT22;2896;53.500;10.020;2024-02-21T11:24:04;9.60;99.90
5743;DHT22;2896;53.500;10.020;2024-02-21T11:28:58;9.50;99.90
5743;DHT22;2896;53.500;10.020;2024-02-21T11:31:26;9.50;99.90
5743;DHT22;2896;53.500;10.020;2024-02-21T11:36:25;9.50;99.90
5743;DHT22;2896;53.500;10.020;2024-02-21T11:38:52;9.60;99.90
5743;DHT22;2896;53.500;10.020;2024-02-21T11:41:20;9.50;99.90
5743;DHT22;2896;53.500;10.020;2024-02-21T11:46:14;9.50;99.90
5743;DHT22;2896;53.500;10.020;2024-02-21T11:48:41;9.60;99.90
5743;DHT22;2896;53.500;10.020;2024-02-21T11:51:09;9.60;99.90
5743;DHT22;2896;53.500;10.020;2024-02-21T11:53:36;9.60;99.90
5743;DHT22;2896;53.500;10.020;2024-02-21T11:56:03;9.60;99.90
5743;DHT22;2896;53.500;10.020;2024-02-21T11:58:31;9.60;99.90
5743;DHT22;2896;53.500;10.020;2024-02-21T12:00:58;9.50;99.90
5743;DHT22;2896;53.500;10.020;2024-02-21T12:03:24;9.60;99.90
5743;DHT22;2896;53.500;10.020;2024-02-21T12:05:53;9.70;99.90
5743;DHT22;2896;53.500;10.020;2024-02-21T12:08:21;9.60;99.90
5743;DHT22;2896;53.500;10.020;2024-02-21T12:13:16;9.60;99.90
5743;DHT22;2896;53.500;10.020;2024-02-21T12:15:47;9.60;99.90
5743;DHT22;2896;53.500;10.020;2024-02-21T12:18:14;9.60;99.90
5743;DHT22;2896;53.500;10.020;2024-02-21T12:20:41;9.60;99.90
5743;DHT22;2896;53.500;10.020;2024-02-21T12:23:09;9.60;99.90
5743;DHT22;2896;53.500;10.020;2024-02-21T12:28:03;9.50;99.90
5743;DHT22;2896;53.500;10.020;2024-02-21T12:30:29;9.50;99.90
5743;DHT22;2896;53.500;10.020;2024-02-21T12:33:00;9.50;99.90
5743;DHT22;2896;53.500;10.020;2024-02-21T12:35:27;9.50;99.90
5743;DHT22;2896;53.500;10.020;2024-02-21T12:37:54;9.40;99.90
5743;DHT22;2896;53.500;10.020;2024-02-21T12:40:20;9.40;99.90
5743;DHT22;2896;53.500;10.020;2024-02-21T12:42:47;9.40;99.90
5743;DHT22;2896;53.500;10.020;2024-02-21T12:45:13;9.40;99.90
5743;DHT22;2896;53.500;10.020;2024-02-21T12:47:41;9.50;99.90
5743;DHT22;2896;53.500;10.020;2024-02-21T12:50:09;9.60;99.90
5743;DHT22;2896;53.500;10.020;2024-02-21T12:52:36;9.60;99.90
5743;DHT22;2896;53.500;10.020;2024-02-21T12:55:03;9.60;99.90
5743;DHT22;2896;53.500;10.020;2024-02-21T12:57:29;9.50;99.90
5743;DHT22;2896;53.500;10.020;2024-02-21T12:59:56;9.60;99.90
5743;DHT22;2896;53.500;10.020;2024-02-21T13:02:23;9.60;99.90
5743;DHT22;2896;53.500;10.020;2024-02-21T13:04:49;9.70;99.90
5743;DHT22;2896;53.500;10.020;2024-02-21T13:07:17;9.70;99.90
5743;DHT22;2896;53.500;10.020;2024-02-21T13:09:44;9.90;99.90
5743;DHT22;2896;53.500;10.020;2024-02-21T13:12:11;9.90;99.90
5743;DHT22;2896;53.500;10.020;2024-02-21T13:14:37;9.90;99.90
5743;DHT22;2896;53.500;10.020;2024-02-21T13:17:05;10.00;99.90
5743;DHT22;2896;53.500;10.020;2024-02-21T13:19:31;10.20;99.90
5743;DHT22;2896;53.500;10.020;2024-02-21T13:21:58;10.20;99.90
5743;DHT22;2896;53.500;10.020;2024-02-21T13:24:26;10.30;99.90
5743;DHT22;2896;53.500;10.020;2024-02-21T13:26:52;10.20;99.90
5743;DHT22;2896;53.500;10.020;2024-02-21T13:29:19;10.20;99.90
5743;DHT22;2896;53.500;10.020;2024-02-21T13:31:46;10.20;99.90
5743;DHT22;2896;53.500;10.020;2024-02-21T13:34:13;10.10;99.90
5743;DHT22;2896;53.500;10.020;2024-02-21T13:36:40;10.20;99.90
5743;DHT22;2896;53.500;10.020;2024-02-21T13:39:06;10.20;99.90
5743;DHT22;2896;53.500;10.020;2024-02-21T13:41:39;10.20;99.90
5743;DHT22;2896;53.500;10.020;2024-02-21T13:44:06;10.10;99.90
5743;DHT22;2896;53.500;10.020;2024-02-21T13:46:32;10.20;99.90
5743;DHT22;2896;53.500;10.020;2024-02-21T13:49:03;10.20;99.90
5743;DHT22;2896;53.500;10.020;2024-02-21T13:51:31;10.30;99.90
5743;DHT22;2896;53.500;10.020;2024-02-21T13:53:58;10.40;99.90
5743;DHT22;2896;53.500;10.020;2024-02-21T13:56:25;10.30;99.90
5743;DHT22;2896;53.500;10.020;2024-02-21T13:58:53;10.30;99.90
5743;DHT22;2896;53.500;10.020;2024-02-21T14:01:20;10.30;99.90
5743;DHT22;2896;53.500;10.020;2024-02-21T14:03:46;10.30;95.30
5743;DHT22;2896;53.500;10.020;2024-02-21T14:06:13;10.30;74.20
5743;DHT22;2896;53.500;10.020;2024-02-21T14:08:40;10.30;1.00
5743;DHT22;2896;53.500;10.020;2024-02-21T14:11:06;10.40;1.00
5743;DHT22;2896;53.500;10.020;2024-02-21T14:13:33;10.50;1.00
5743;DHT22;2896;53.500;10.020;2024-02-21T14:16:01;10.60;1.00
5743;DHT22;2896;53.500;10.020;2024-02-21T14:18:28;10.60;99.90
5743;DHT22;2896;53.500;10.020;2024-02-21T14:20:54;10.60;99.90
5743;DHT22;2896;53.500;10.020;2024-02-21T14:23:21;10.70;42.60
5743;DHT22;2896;53.500;10.020;2024-02-21T14:25:47;13.50;47.10
5743;DHT22;2896;53.500;10.020;2024-02-21T14:28:16;10.80;99.90
5743;DHT22;2896;53.500;10.020;2024-02-21T14:30:43;10.90;99.90
5743;DHT22;2896;53.500;10.020;2024-02-21T14:33:14;10.90;1.00
5743;DHT22;2896;53.500;10.020;2024-02-21T14:35:40;11.00;1.00
5743;DHT22;2896;53.500;10.020;2024-02-21T14:38:07;11.00;51.90
5743;DHT22;2896;53.500;10.020;2024-02-21T14:40:34;10.90;23.90
5743;DHT22;2896;53.500;10.020;2024-02-21T14:43:01;11.00;99.90
5743;DHT22;2896;53.500;10.020;2024-02-21T14:45:27;10.90;99.90
5743;DHT22;2896;53.500;10.020;2024-02-21T14:47:54;10.80;1.00
5743;DHT22;2896;53.500;10.020;2024-02-21T14:50:22;10.80;28.30
5743;DHT22;2896;53.500;10.020;2024-02-21T14:52:49;10.70;19.10
5743;DHT22;2896;53.500;10.020;2024-02-21T14:55:16;10.70;99.90
5743;DHT22;2896;53.500;10.020;2024-02-21T14:57:42;10.70;99.90
5743;DHT22;2896;53.500;10.020;2024-02-21T15:00:10;10.70;1.00
5743;DHT22;2896;53.500;10.020;2024-02-21T15:02:37;10.60;1.00
5743;DHT22;2896;53.500;10.020;2024-02-21T15:05:04;10.50;99.90
5743;DHT22;2896;53.500;10.020;2024-02-21T15:07:33;10.60;99.90
5743;DHT22;2896;53.500;10.020;2024-02-21T15:09:59;10.60;99.90
5743;DHT22;2896;53.500;10.020;2024-02-21T15:12:26;10.60;1.00
5743;DHT22;2896;53.500;10.020;2024-02-21T15:14:53;10.50;99.90
5743;DHT22;2896;53.500;10.020;2024-02-21T15:17:19;10.40;99.90
5743;DHT22;2896;53.500;10.020;2024-02-21T15:19:46;10.40;99.90
5743;DHT22;2896;53.500;10.020;2024-02-21T15:22:13;10.30;1.00
5743;DHT22;2896;53.500;10.020;2024-02-21T15:24:41;10.30;1.00
5743;DHT22;2896;53.500;10.020;2024-02-21T15:27:08;10.30;99.90
5743;DHT22;2896;53.500;10.020;2024-02-21T15:29:37;10.20;1.00
5743;DHT22;2896;53.500;10.020;2024-02-21T15:32:04;10.20;99.90
5743;DHT22;2896;53.500;10.020;2024-02-21T15:34:31;10.20;33.00
5743;DHT22;2896;53.500;10.020;2024-02-21T15:36:57;10.20;86.70
5743;DHT22;2896;53.500;10.020;2024-02-21T15:39:24;10.10;99.90
5743;DHT22;2896;53.500;10.020;2024-02-21T15:41:54;10.10;99.90
5743;DHT22;2896;53.500;10.020;2024-02-21T15:44:21;10.00;1.00
5743;DHT22;2896;53.500;10.020;2024-02-21T15:46:48;10.00;1.00
5743;DHT22;2896;53.500;10.020;2024-02-21T15:49:16;10.00;1.00
5743;DHT22;2896;53.500;10.020;2024-02-21T15:51:42;10.00;1.00
5743;DHT22;2896;53.500;10.020;2024-02-21T15:54:09;10.00;1.00
5743;DHT22;2896;53.500;10.020;2024-02-21T15:56:36;10.00;99.90
5743;DHT22;2896;53.500;10.020;2024-02-21T15:59:04;9.90;97.00
5743;DHT22;2896;53.500;10.020;2024-02-21T16:01:31;9.80;99.90
5743;DHT22;2896;53.500;10.020;2024-02-21T16:03:58;9.80;99.90
5743;DHT22;2896;53.500;10.020;2024-02-21T16:06:25;9.80;99.90
5743;DHT22;2896;53.500;10.020;2024-02-21T16:08:52;9.70;1.00
5743;DHT22;2896;53.500;10.020;2024-02-21T16:11:19;9.70;1.00
5743;DHT22;2896;53.500;10.020;2024-02-21T16:13:45;9.60;1.00
5743;DHT22;2896;53.500;10.020;2024-02-21T16:16:14;9.60;1.00
5743;DHT22;2896;53.500;10.020;2024-02-21T16:18:41;9.60;99.90
5743;DHT22;2896;53.500;10.020;2024-02-21T16:21:08;9.70;1.00
5743;DHT22;2896;53.500;10.020;2024-02-21T16:23:34;9.70;1.00
5743;DHT22;2896;53.500;10.020;2024-02-21T16:26:01;9.50;99.90
5743;DHT22;2896;53.500;10.020;2024-02-21T16:28:28;9.50;1.00
5743;DHT22;2896;53.500;10.020;2024-02-21T16:30:54;9.40;99.90
5743;DHT22;2896;53.500;10.020;2024-02-21T16:33:24;9.40;99.90
5743;DHT22;2896;53.500;10.020;2024-02-21T16:35:51;9.30;99.90
5743;DHT22;2896;53.500;10.020;2024-02-21T16:38:17;9.30;99.90
5743;DHT22;2896;53.500;10.020;2024-02-21T16:40:47;9.20;1.00
5743;DHT22;2896;53.500;10.020;2024-02-21T16:43:14;9.20;99.90
5743;DHT22;2896;53.500;10.020;2024-02-21T16:45:40;9.20;1.00
5743;DHT22;2896;53.500;10.020;2024-02-21T16:48:07;9.20;99.90
5743;DHT22;2896;53.500;10.020;2024-02-21T16:50:35;9.20;1.00
5743;DHT22;2896;53.500;10.020;2024-02-21T16:53:02;9.10;99.90
5743;DHT22;2896;53.500;10.020;2024-02-21T16:55:29;9.10;1.00
5743;DHT22;2896;53.500;10.020;2024-02-21T16:57:59;9.00;99.90
5743;DHT22;2896;53.500;10.020;2024-02-21T17:00:26;9.00;99.90
5743;DHT22;2896;53.500;10.020;2024-02-21T17:02:52;9.00;1.00
5743;DHT22;2896;53.500;10.020;2024-02-21T17:05:19;9.00;1.00
5743;DHT22;2896;53.500;10.020;2024-02-21T17:07:51;8.90;99.90
5743;DHT22;2896;53.500;10.020;2024-02-21T17:10:17;8.80;1.00
5743;DHT22;2896;53.500;10.020;2024-02-21T17:12:44;8.90;99.90
5743;DHT22;2896;53.500;10.020;2024-02-21T17:15:11;8.90;1.00
5743;DHT22;2896;53.500;10.020;2024-02-21T17:17:39;9.10;99.90
5743;DHT22;2896;53.500;10.020;2024-02-21T17:20:06;8.90;1.00
5743;DHT22;2896;53.500;10.020;2024-02-21T17:22:35;8.70;1.00